createdAt,value
2022-10-23T00:02:03.140Z,96.48
2022-10-23T00:06:05.680Z,96.61
2022-10-23T00:10:07.893Z,96.80
2022-10-23T00:14:09.928Z,96.97
2022-10-23T00:18:11.690Z,96.79
2022-10-23T00:22:13.429Z,96.75
2022-10-23T00:26:16.004Z,96.71
2022-10-23T00:30:17.724Z,97.01
2022-10-23T00:34:19.938Z,97.10
2022-10-23T00:38:22.763Z,97.53
2022-10-23T00:42:24.545Z,96.88
2022-10-23T00:46:26.595Z,97.27
2022-10-23T00:50:31.231Z,97.07
2022-10-23T00:54:43.730Z,97.44
2022-10-23T00:58:45.468Z,97.08
2022-10-23T01:02:47.439Z,97.23
2022-10-23T01:06:55.152Z,97.33
2022-10-23T01:11:06.047Z,97.37
2022-10-23T01:15:29.661Z,97.30
2022-10-23T01:19:49.257Z,97.64
2022-10-23T01:24:09.285Z,97.77
2022-10-23T01:28:21.743Z,97.37
2022-10-23T01:32:51.112Z,97.74
2022-10-23T01:36:55.520Z,97.74
2022-10-23T01:41:07.165Z,97.59
2022-10-23T01:45:19.290Z,98.00
2022-10-23T01:49:22.493Z,97.96
2022-10-23T01:53:33.559Z,97.91
2022-10-23T01:57:40.138Z,98.01
2022-10-23T02:01:46.872Z,98.20
2022-10-23T02:05:49.256Z,98.38
2022-10-23T02:09:51.093Z,97.89
2022-10-23T02:14:34.019Z,98.16
2022-10-23T02:19:00.641Z,98.26
2022-10-23T02:23:26.546Z,98.70
2022-10-23T02:27:40.032Z,98.87
2022-10-23T02:31:42.900Z,98.78
2022-10-23T02:35:46.539Z,98.99
2022-10-23T02:39:58.537Z,98.57
2022-10-23T02:44:28.183Z,99.19
2022-10-23T02:48:41.760Z,98.82
2022-10-23T02:53:23.241Z,99.16
2022-10-23T02:57:35.762Z,98.68
2022-10-23T03:02:03.819Z,98.75
2022-10-23T03:06:06.241Z,98.90
2022-10-23T03:10:10.541Z,99.34
2022-10-23T03:14:13.808Z,99.39
2022-10-23T03:18:15.548Z,99.53
2022-10-23T03:22:22.375Z,99.45
2022-10-23T03:26:24.164Z,99.66
2022-10-23T03:30:25.861Z,99.84
2022-10-23T03:34:29.751Z,99.98
2022-10-23T03:38:32.052Z,99.70
2022-10-23T03:42:34.124Z,99.72
2022-10-23T03:46:35.822Z,99.58
2022-10-23T03:50:37.743Z,99.64
2022-10-23T03:54:40.330Z,99.74
2022-10-23T03:58:42.053Z,99.97
2022-10-23T04:02:44.110Z,99.77
2022-10-23T04:06:46.334Z,99.88
2022-10-23T04:10:48.151Z,99.96
2022-10-23T04:14:51.453Z,100.00
2022-10-23T04:18:53.974Z,100.00
2022-10-23T04:22:55.637Z,100.00
2022-10-23T04:26:57.310Z,100.00
2022-10-23T04:31:04.250Z,100.00
2022-10-23T04:35:06.834Z,100.00
2022-10-23T04:39:09.000Z,100.00
2022-10-23T04:43:11.981Z,100.00
2022-10-23T04:47:14.886Z,100.00
2022-10-23T04:51:29.557Z,100.00
2022-10-23T04:55:48.187Z,100.00
2022-10-23T04:59:55.896Z,100.00
2022-10-23T05:03:57.742Z,99.88
2022-10-23T05:07:59.528Z,100.00
2022-10-23T05:12:21.542Z,99.95
2022-10-23T05:16:41.939Z,99.83
2022-10-23T05:20:50.365Z,99.82
2022-10-23T05:24:52.167Z,99.65
2022-10-23T05:28:58.025Z,99.60
2022-10-23T05:33:02.360Z,100.00
2022-10-23T05:37:09.312Z,100.00
2022-10-23T05:41:13.329Z,100.00
2022-10-23T05:45:16.231Z,100.00
2022-10-23T05:49:36.568Z,100.00
2022-10-23T05:53:56.914Z,100.00
2022-10-23T05:58:06.996Z,100.00
2022-10-23T06:02:38.092Z,100.00
2022-10-23T06:06:47.757Z,99.97
2022-10-23T06:10:49.547Z,100.00
2022-10-23T06:14:51.998Z,100.00
2022-10-23T06:18:55.907Z,100.00
2022-10-23T06:22:58.563Z,100.00
2022-10-23T06:27:20.311Z,100.00
2022-10-23T06:31:26.883Z,100.00
2022-10-23T06:35:30.096Z,100.00
2022-10-23T06:39:32.890Z,100.00
2022-10-23T06:43:42.216Z,100.00
2022-10-23T06:48:10.222Z,100.00
2022-10-23T06:52:18.397Z,100.00
2022-10-23T06:56:30.488Z,100.00
2022-10-23T07:00:35.324Z,100.00
2022-10-23T07:04:37.156Z,100.00
2022-10-23T07:08:45.619Z,100.00
2022-10-23T07:13:08.773Z,100.00
2022-10-23T07:17:33.604Z,100.00
2022-10-23T07:21:35.964Z,100.00
2022-10-23T07:25:56.347Z,100.00
2022-10-23T07:29:58.474Z,100.00
2022-10-23T07:34:04.026Z,100.00
2022-10-23T07:38:05.811Z,100.00
2022-10-23T07:42:12.074Z,100.00
2022-10-23T07:46:15.553Z,100.00
2022-10-23T07:50:18.512Z,100.00
2022-10-23T07:54:20.693Z,100.00
2022-10-23T07:58:37.384Z,100.00
2022-10-23T08:02:45.280Z,99.96
2022-10-23T08:06:47.284Z,100.00
2022-10-23T08:10:51.704Z,100.00
2022-10-23T08:15:00.221Z,100.00
2022-10-23T08:19:10.659Z,100.00
2022-10-23T08:23:18.544Z,100.00
2022-10-23T08:27:20.495Z,99.84
2022-10-23T08:31:24.216Z,100.00
2022-10-23T08:35:46.631Z,99.84
2022-10-23T08:39:53.285Z,100.00
2022-10-23T08:44:11.878Z,100.00
2022-10-23T08:48:33.239Z,100.00
2022-10-23T08:53:23.874Z,100.00
2022-10-23T08:57:34.569Z,100.00
2022-10-23T09:01:41.544Z,100.00
2022-10-23T09:06:09.583Z,100.00
2022-10-23T09:10:33.198Z,100.00
2022-10-23T09:14:37.651Z,99.67
2022-10-23T09:18:42.049Z,99.86
2022-10-23T09:22:44.539Z,99.47
2022-10-23T09:26:49.687Z,99.30
2022-10-23T09:30:52.533Z,99.37
2022-10-23T09:34:55.428Z,99.30
2022-10-23T09:38:59.432Z,99.21
2022-10-23T09:43:04.269Z,99.08
2022-10-23T09:47:05.919Z,98.85
2022-10-23T09:51:21.489Z,99.25
2022-10-23T09:55:25.848Z,98.88
2022-10-23T09:59:32.325Z,99.00
2022-10-23T10:03:34.077Z,99.01
2022-10-23T10:07:42.135Z,99.08
2022-10-23T10:11:57.803Z,98.93
2022-10-23T10:16:31.414Z,98.93
2022-10-23T10:20:42.897Z,98.77
2022-10-23T10:24:50.475Z,98.74
2022-10-23T10:29:07.333Z,98.50
2022-10-23T10:33:22.095Z,98.37
2022-10-23T10:37:57.791Z,98.51
2022-10-23T10:42:20.282Z,98.28
2022-10-23T10:46:51.091Z,98.03
2022-10-23T10:51:26.853Z,97.94
2022-10-23T10:55:38.834Z,97.81
2022-10-23T10:59:46.027Z,97.14
2022-10-23T11:03:57.704Z,97.14
2022-10-23T11:08:11.355Z,97.16
2022-10-23T11:12:19.687Z,97.04
2022-10-23T11:16:30.052Z,96.60
2022-10-23T11:20:45.263Z,96.54
2022-10-23T11:25:09.183Z,96.08
2022-10-23T11:29:40.977Z,96.27
2022-10-23T11:34:07.644Z,95.86
2022-10-23T11:38:17.220Z,95.68
2022-10-23T11:42:45.583Z,94.96
2022-10-23T11:46:47.901Z,94.46
2022-10-23T11:50:53.689Z,94.55
2022-10-23T11:55:20.756Z,94.52
2022-10-23T11:59:37.047Z,94.30
2022-10-23T12:03:51.158Z,93.96
2022-10-23T12:08:02.620Z,93.84
2022-10-23T12:12:07.258Z,93.94
2022-10-23T12:16:08.970Z,93.53
2022-10-23T12:20:13.487Z,93.38
2022-10-23T12:24:34.812Z,93.08
2022-10-23T12:28:55.132Z,93.17
2022-10-23T12:33:06.426Z,92.92
2022-10-23T12:37:54.765Z,92.79
2022-10-23T12:41:57.342Z,92.70
2022-10-23T12:46:17.726Z,92.28
2022-10-23T12:50:25.570Z,92.22
2022-10-23T12:54:28.055Z,92.00
2022-10-23T12:58:33.266Z,91.88
2022-10-23T13:02:38.480Z,91.89
2022-10-23T13:06:40.614Z,91.91
2022-10-23T13:10:42.673Z,91.93
2022-10-23T13:15:01.375Z,91.73
2022-10-23T13:19:03.232Z,91.35
2022-10-23T13:23:07.856Z,91.46
2022-10-23T13:27:31.449Z,91.14
2022-10-23T13:31:33.786Z,91.46
2022-10-23T13:35:37.429Z,91.36
2022-10-23T13:39:39.087Z,91.11
2022-10-23T13:43:41.474Z,91.19
2022-10-23T13:47:43.356Z,90.92
2022-10-23T13:51:51.361Z,91.04
2022-10-23T13:55:56.294Z,91.13
2022-10-23T14:00:00.335Z,90.84
2022-10-23T14:04:06.881Z,91.13
2022-10-23T14:08:08.759Z,91.15
2022-10-23T14:12:11.982Z,91.25
2022-10-23T14:16:15.668Z,91.26
2022-10-23T14:20:19.149Z,91.18
2022-10-23T14:24:21.407Z,91.30
2022-10-23T14:28:23.127Z,91.07
2022-10-23T14:32:25.128Z,90.83
2022-10-23T14:36:34.276Z,90.99
2022-10-23T14:40:45.143Z,90.57
2022-10-23T14:44:49.435Z,90.35
2022-10-23T14:48:57.448Z,90.55
2022-10-23T14:57:22.543Z,90.27
2022-10-23T15:01:24.274Z,90.37
2022-10-23T15:05:26.193Z,90.87
2022-10-23T15:09:27.948Z,90.84
2022-10-23T15:13:29.986Z,90.89
2022-10-23T15:17:32.479Z,91.11
2022-10-23T15:21:34.475Z,91.21
2022-10-23T15:25:36.251Z,91.17
2022-10-23T15:29:37.905Z,91.30
2022-10-23T15:33:39.826Z,91.11
2022-10-23T15:37:41.681Z,91.52
2022-10-23T15:41:44.283Z,91.58
2022-10-23T15:45:46.021Z,91.29
2022-10-23T15:49:47.728Z,91.97
2022-10-23T15:53:49.529Z,91.99
2022-10-23T15:57:51.190Z,91.51
2022-10-23T16:01:53.262Z,91.96
2022-10-23T16:05:54.995Z,91.67
2022-10-23T16:09:59.564Z,91.86
2022-10-23T16:14:03.188Z,91.91
2022-10-23T16:18:05.051Z,91.88
2022-10-23T16:22:07.794Z,92.23
2022-10-23T16:26:09.723Z,92.23
2022-10-23T16:30:14.184Z,92.39
2022-10-23T16:34:16.273Z,92.17
2022-10-23T16:38:18.062Z,92.30
2022-10-23T16:42:19.688Z,92.20
2022-10-23T16:46:47.370Z,92.27
2022-10-23T16:50:49.026Z,92.40
2022-10-23T16:54:50.707Z,92.31
2022-10-23T16:58:52.420Z,92.72
2022-10-23T17:02:54.130Z,92.67
2022-10-23T17:06:55.929Z,92.60
2022-10-23T17:11:13.134Z,92.86
2022-10-23T17:15:14.794Z,92.99
2022-10-23T17:19:44.515Z,93.01
2022-10-23T17:23:41.255Z,92.67
2022-10-23T17:27:43.356Z,93.25
2022-10-23T17:31:47.986Z,93.02
2022-10-23T17:35:49.743Z,93.16
2022-10-23T17:39:51.457Z,93.04
2022-10-23T17:43:57.620Z,93.06
2022-10-23T17:47:59.405Z,92.90
2022-10-23T17:52:01.959Z,92.89
2022-10-23T17:56:05.558Z,92.82
2022-10-23T18:00:07.515Z,93.23
2022-10-23T18:04:14.771Z,93.31
2022-10-23T18:08:17.220Z,92.73
2022-10-23T18:12:18.949Z,92.60
2022-10-23T18:16:21.504Z,92.93
2022-10-23T18:20:23.214Z,92.98
2022-10-23T18:24:26.579Z,92.85
2022-10-23T18:28:29.848Z,92.91
2022-10-23T18:32:31.550Z,93.20
2022-10-23T18:36:37.491Z,93.41
2022-10-23T18:40:41.244Z,94.05
2022-10-23T18:44:47.006Z,94.37
2022-10-23T18:48:50.889Z,94.88
2022-10-23T18:52:53.034Z,95.60
2022-10-23T18:56:54.782Z,96.31
2022-10-23T19:00:56.479Z,96.51
2022-10-23T19:04:58.246Z,98.69
2022-10-23T19:08:59.952Z,100.00
2022-10-23T19:13:01.704Z,100.00
2022-10-23T19:17:08.170Z,99.11
2022-10-23T19:21:10.311Z,97.94
2022-10-23T19:25:15.382Z,98.41
2022-10-23T19:29:21.767Z,97.84
2022-10-23T19:33:23.431Z,98.11
2022-10-23T19:37:25.195Z,98.29
2022-10-23T19:41:26.891Z,98.37
2022-10-23T19:45:28.699Z,98.51
2022-10-23T19:49:30.549Z,98.78
2022-10-23T19:53:32.183Z,98.59
2022-10-23T19:57:34.005Z,99.14
2022-10-23T20:01:36.115Z,99.42
2022-10-23T20:05:38.066Z,99.02
2022-10-23T20:09:40.108Z,99.20
2022-10-23T20:13:41.838Z,99.58
2022-10-23T20:17:43.604Z,99.63
2022-10-23T20:21:48.098Z,99.54
2022-10-23T20:25:49.822Z,99.65
2022-10-23T20:29:51.881Z,99.88
2022-10-23T20:33:54.507Z,99.90
2022-10-23T20:37:56.211Z,99.97
2022-10-23T20:41:58.294Z,100.00
2022-10-23T20:46:04.992Z,99.96
2022-10-23T20:50:08.642Z,99.85
2022-10-23T20:54:10.810Z,100.00
2022-10-23T20:58:12.517Z,99.84
2022-10-23T21:02:14.250Z,100.00
2022-10-23T21:06:17.407Z,100.00
2022-10-23T21:10:19.095Z,100.00
2022-10-23T21:14:20.771Z,100.00
2022-10-23T21:18:40.991Z,100.00
2022-10-23T21:22:46.691Z,100.00
2022-10-23T21:26:48.513Z,100.00
2022-10-23T21:30:50.246Z,100.00
2022-10-23T21:34:52.066Z,99.73
2022-10-23T21:38:56.329Z,99.88
2022-10-23T21:42:58.014Z,99.65
2022-10-23T21:46:59.767Z,99.20
2022-10-23T21:51:01.972Z,99.48
2022-10-23T21:55:04.205Z,99.04
2022-10-23T21:59:12.648Z,99.34
2022-10-23T22:03:14.591Z,99.25
2022-10-23T22:07:16.398Z,99.43
2022-10-23T22:11:18.260Z,99.11
2022-10-23T22:15:20.080Z,99.21
2022-10-23T22:19:22.933Z,99.23
2022-10-23T22:23:24.829Z,99.21
2022-10-23T22:27:26.529Z,99.08
2022-10-23T22:31:32.414Z,98.71
2022-10-23T22:35:34.073Z,98.65
2022-10-23T22:39:35.757Z,98.50
2022-10-23T22:43:37.496Z,98.55
2022-10-23T22:47:39.427Z,98.09
2022-10-23T22:51:41.090Z,97.94
2022-10-23T22:55:43.228Z,98.04
2022-10-23T22:59:44.883Z,98.16
2022-10-23T23:03:47.171Z,98.31
2022-10-23T23:07:48.878Z,98.32
2022-10-23T23:11:52.543Z,97.82
2022-10-23T23:15:55.024Z,98.33
2022-10-23T23:19:56.741Z,98.17
2022-10-23T23:23:58.869Z,98.03
2022-10-23T23:28:00.647Z,98.07
2022-10-23T23:32:02.310Z,97.98
2022-10-23T23:36:11.589Z,97.60
2022-10-23T23:40:14.492Z,97.61
2022-10-23T23:44:16.162Z,97.66
2022-10-23T23:48:17.917Z,97.36
2022-10-23T23:52:19.834Z,97.96
2022-10-23T23:56:22.309Z,97.81
